Data for 10/25/2015

Time Sea-Level Adjusted Pressure Absolute Pressure Temperature Relative Humidity Dew Point   
(mb) (inHg) (mb) (inHg) (C) (F) (%) (C) (F)
00:05 1021 30.15 850 25.1 7.5 45.5 47 -3 26.7
00:10 1021 30.15 850 25.1 7.8 46 49 -2.3 27.9
00:15 1021 30.15 850 25.1 7.6 45.7 50 -2.2 28.1
00:20 1021 30.15 850 25.1 7.4 45.4 51 -2 28.3
00:25 1021 30.15 850 25.1 7.2 44.9 52 -2 28.5
00:30 1021 30.15 850 25.1 7 44.7 51 -2.4 27.7
00:35 1021 30.15 850 25.1 7.3 45.2 49 -2.6 27.4
00:40 1021 30.15 850 25.1 7.4 45.4 48 -2.7 27.1
00:45 1021 30.15 850 25.1 7.4 45.3 48 -2.9 26.8
00:50 1021 30.15 850 25.1 7.5 45.5 51 -2 28.4
00:55 1021 30.15 850 25.1 7.5 45.4 50 -2.3 27.8
01:00 1021 30.15 850 25.1 7.4 45.3 50 -2.3 27.9
01:05 1021 30.15 850 25.1 7.2 44.9 52 -2.1 28.3
01:10 1021 30.15 850 25.1 7 44.6 52 -2.1 28.2
01:15 1021 30.15 850 25.1 6.8 44.2 53 -2.2 28.1
01:20 1021 30.15 850 25.1 6.8 44.2 53 -2.1 28.2
01:25 1021 30.15 850 25.1 6.7 44.1 53 -2.1 28.1
01:30 1021 30.15 850 25.1 6.5 43.8 55 -1.8 28.7
01:35 1021 30.15 850 25.1 6.3 43.4 57 -1.7 29
01:40 1021 30.15 851 25.13 6.3 43.3 55 -2.1 28.2
01:45 1021 30.15 851 25.13 6.4 43.6 56 -1.6 29.1
01:50 1022 30.18 851 25.13 6.2 43.1 59 -1.2 29.8
01:55 1022 30.18 851 25.13 5.6 42 61 -1.3 29.6
02:00 1022 30.18 851 25.13 5.5 41.8 60 -1.7 28.9
02:05 1022 30.18 851 25.13 5.7 42.2 59 -1.7 29
02:10 1022 30.18 851 25.13 5.7 42.3 58 -1.8 28.8
02:15 1022 30.18 851 25.13 6 42.7 58 -1.7 28.9
02:20 1022 30.18 851 25.13 6.2 43.1 58 -1.5 29.4
02:25 1022 30.18 851 25.13 6.1 42.9 59 -1.4 29.5
02:30 1022 30.18 851 25.13 5.8 42.5 59 -1.5 29.2
02:35 1022 30.18 851 25.13 5.7 42.3 59 -1.7 29
02:40 1022 30.18 851 25.13 5.8 42.5 58 -1.7 28.9
02:45 1022 30.18 851 25.13 6 42.9 58 -1.6 29.1
02:50 1022 30.18 851 25.13 5.9 42.6 59 -1.5 29.2
02:55 1022 30.18 851 25.13 5.7 42.3 59 -1.6 29.1
03:00 1022 30.18 851 25.13 5.6 42.1 59 -1.7 29
03:05 1022 30.18 851 25.13 5.6 42.2 60 -1.5 29.3
03:10 1022 30.18 851 25.13 5.7 42.3 59 -1.7 28.9
03:15 1021 30.15 851 25.13 5.6 42.1 60 -1.5 29.3
03:20 1021 30.15 851 25.13 5.4 41.8 60 -1.7 29
03:25 1021 30.15 851 25.13 5.2 41.4 61 -1.7 29
03:30 1021 30.15 851 25.13 5.3 41.5 61 -1.7 28.9
03:35 1022 30.18 851 25.13 5.3 41.5 57 -2.4 27.6
03:40 1022 30.18 851 25.13 5.7 42.3 56 -2.3 27.8
03:45 1022 30.18 851 25.13 5.8 42.4 56 -2.4 27.8
03:50 1022 30.18 851 25.13 5.8 42.4 57 -2.1 28.2
03:55 1022 30.18 851 25.13 5.6 42.1 56 -2.4 27.6
04:00 1022 30.18 851 25.13 5.6 42.2 55 -2.6 27.3
04:05 1022 30.18 851 25.13 5.8 42.4 55 -2.6 27.3
04:10 1022 30.18 851 25.13 5.9 42.6 55 -2.5 27.6
04:15 1022 30.18 851 25.13 6 42.8 54 -2.7 27.1
04:20 1022 30.18 851 25.13 5.9 42.6 55 -2.5 27.5
04:25 1022 30.18 851 25.13 5.6 42 55 -2.7 27.1
04:30 1022 30.18 851 25.13 5.8 42.4 53 -2.9 26.7
04:35 1021 30.15 851 25.13 6 42.8 53 -2.9 26.7
04:40 1022 30.18 851 25.13 6.1 43 53 -2.7 27.2
04:45 1022 30.18 851 25.13 6.1 43 53 -2.7 27.1
04:50 1021 30.15 851 25.13 6.1 42.9 53 -2.7 27.2
04:55 1021 30.15 851 25.13 6 42.8 53 -2.9 26.8
05:00 1021 30.15 851 25.13 6.1 42.9 53 -2.9 26.8
05:05 1021 30.15 851 25.13 6.1 43 52 -3.1 26.5
05:10 1021 30.15 851 25.13 6.2 43.1 52 -2.9 26.8
05:15 1021 30.15 851 25.13 6.1 42.9 52 -2.9 26.8
05:20 1021 30.15 851 25.13 6 42.7 53 -2.9 26.8
05:25 1021 30.15 850 25.1 5.9 42.6 53 -3 26.5
05:30 1021 30.15 850 25.1 6 42.7 53 -2.9 26.9
05:35 1021 30.15 850 25.1 6 42.8 52 -3 26.5
05:40 1021 30.15 850 25.1 6 42.7 52 -3.1 26.5
05:45 1021 30.15 850 25.1 6 42.7 52 -3.1 26.5
05:50 1021 30.15 850 25.1 6 42.9 52 -3.2 26.3
05:55 1021 30.15 850 25.1 6.1 43 52 -2.9 26.7
06:00 1021 30.15 850 25.1 5.9 42.6 53 -3 26.6
06:05 1021 30.15 850 25.1 5.9 42.6 52 -3.1 26.3
06:10 1021 30.15 850 25.1 5.9 42.7 52 -3.3 26.1
06:15 1021 30.15 850 25.1 6.1 42.9 52 -3.1 26.4
06:20 1021 30.15 850 25.1 6 42.8 51 -3.4 26
06:25 1021 30.15 850 25.1 6 42.7 52 -3.2 26.2
06:30 1021 30.15 850 25.1 5.9 42.5 52 -3.3 26
06:35 1021 30.15 850 25.1 5.9 42.6 52 -3.2 26.2
06:40 1020 30.12 850 25.1 5.9 42.6 52 -3.3 26.1
06:45 1020 30.12 850 25.1 5.9 42.5 52 -3.3 26.1
06:50 1020 30.12 850 25.1 5.8 42.4 53 -3.1 26.4
06:55 1020 30.12 849 25.07 5.7 42.2 53 -3.2 26.2
07:00 1020 30.12 849 25.07 5.7 42.3 52 -3.2 26.2
07:05 1020 30.12 849 25.07 5.8 42.5 52 -3.3 26.1
07:10 1020 30.12 849 25.07 5.8 42.5 52 -3.2 26.3
07:15 1020 30.12 850 25.1 5.7 42.3 53 -3 26.6
07:20 1020 30.12 850 25.1 5.8 42.4 52 -3.4 25.9
07:25 1020 30.12 850 25.1 6.3 43.3 50 -3.3 26.1
07:30 1020 30.12 850 25.1 6.6 43.8 49 -3.5 25.7
07:35 1020 30.12 849 25.07 6.8 44.3 48 -3.4 25.8
07:40 1020 30.12 849 25.07 6.9 44.4 49 -3.1 26.4
07:45 1020 30.12 849 25.07 7 44.6 49 -3.1 26.5
07:50 1020 30.12 849 25.07 7.2 45 48 -3 26.6
07:55 1020 30.12 849 25.07 7.2 45 48 -3 26.6
08:00 1020 30.12 849 25.07 7.3 45.1 48 -2.9 26.8
08:05 1020 30.12 849 25.07 7.4 45.3 48 -2.8 27
08:10 1020 30.12 849 25.07 7.5 45.4 49 -2.5 27.5
08:15 1020 30.12 849 25.07 7.5 45.5 49 -2.6 27.3
08:20 1020 30.12 849 25.07 7.7 45.8 49 -2.5 27.6
08:25 1020 30.12 849 25.07 7.7 45.9 48 -2.7 27.1
08:30 1020 30.12 850 25.1 7.9 46.2 47 -2.7 27.2
08:35 1021 30.15 850 25.1 8.2 46.7 46 -2.7 27.2
08:40 1021 30.15 850 25.1 8.6 47.4 44 -2.9 26.8
08:45 1021 30.15 850 25.1 9 48.2 44 -2.5 27.5
08:50 1021 30.15 850 25.1 9.4 48.9 45 -2 28.5
08:55 1021 30.15 850 25.1 9.7 49.4 44 -2.1 28.2
09:00 1021 30.15 850 25.1 9.6 49.3 44 -2.1 28.2
09:05 1021 30.15 850 25.1 9.1 48.3 45 -2.3 27.8
09:10 1021 30.15 850 25.1 8.8 47.8 46 -2.1 28.2
09:15 1021 30.15 850 25.1 8.2 46.7 50 -1.7 28.9
09:20 1021 30.15 850 25.1 7.8 46.1 52 -1.4 29.5
09:25 1021 30.15 850 25.1 7.7 45.9 52 -1.5 29.4
09:30 1021 30.15 850 25.1 7.9 46.2 51 -1.6 29.2
09:35 1021 30.15 850 25.1 7.9 46.3 52 -1.3 29.6
09:40 1021 30.15 850 25.1 8.2 46.7 51 -1.4 29.6
09:45 1021 30.15 850 25.1 8.3 46.9 51 -1.3 29.6
09:50 1021 30.15 850 25.1 8.2 46.7 50 -1.6 29.1
09:55 1021 30.15 850 25.1 8.2 46.7 49 -1.9 28.6
10:00 1021 30.15 850 25.1 8.4 47.1 49 -1.7 29
10:05 1021 30.15 850 25.1 8.7 47.7 47 -1.8 28.7
10:10 1021 30.15 850 25.1 9.2 48.5 46 -1.8 28.7
10:15 1021 30.15 850 25.1 9.2 48.5 47 -1.6 29.1
10:20 1021 30.15 850 25.1 9.2 48.5 45 -2.2 28.1
10:25 1021 30.15 850 25.1 9 48.3 46 -1.9 28.6
10:30 1021 30.15 850 25.1 9 48.3 46 -2 28.4
10:35 1021 30.15 850 25.1 8.9 48 46 -2 28.5
10:40 1021 30.15 850 25.1 9 48.1 46 -1.9 28.5
10:45 1021 30.15 850 25.1 9.1 48.4 46 -1.8 28.7
10:50 1021 30.15 850 25.1 9.6 49.3 46 -1.3 29.7
10:55 1021 30.15 850 25.1 9.8 49.6 43 -2.1 28.1
11:00 1021 30.15 850 25.1 10 50.1 43 -2 28.4
11:05 1021 30.15 850 25.1 10.7 51.2 41 -2 28.4
11:10 1021 30.15 850 25.1 11 51.8 41 -1.6 29.1
11:15 1021 30.15 850 25.1 10.8 51.5 40 -2.3 27.9
11:20 1020 30.12 850 25.1 11.5 52.7 39 -2.1 28.3
11:25 1021 30.15 850 25.1 12 53.6 36 -2.6 27.4
11:30 1020 30.12 850 25.1 12.6 54.7 37 -1.8 28.8
11:35 1020 30.12 850 25.1 11.9 53.5 38 -2 28.4
11:40 1020 30.12 850 25.1 12.2 54 38 -1.8 28.8
11:45 1020 30.12 849 25.07 12.6 54.7 39 -1.1 30.1
11:50 1020 30.12 849 25.07 12.6 54.6 38 -1.3 29.6
11:55 1020 30.12 849 25.07 12.2 53.9 39 -1.3 29.6
12:00 1020 30.12 849 25.07 12.2 54 38 -1.6 29
12:05 1020 30.12 849 25.07 11.9 53.5 38 -1.8 28.8
12:10 1020 30.12 849 25.07 11.8 53.3 39 -1.7 28.9
12:15 1020 30.12 849 25.07 12 53.6 37 -2.1 28.2
12:20 1020 30.12 849 25.07 12.1 53.7 36 -2.4 27.7
12:25 1019 30.09 849 25.07 12.1 53.7 36 -2.5 27.5
12:30 1019 30.09 849 25.07 11.9 53.5 36 -2.6 27.3
12:35 1019 30.09 849 25.07 11.9 53.5 35 -3.1 26.5
12:40 1019 30.09 849 25.07 11.8 53.2 35 -3 26.5
12:45 1019 30.09 849 25.07 11.8 53.2 36 -2.9 26.7
12:50 1019 30.09 849 25.07 11.7 53.1 35 -3.1 26.5
12:55 1019 30.09 848 25.04 11.6 52.9 36 -3 26.6
13:00 1019 30.09 849 25.07 11.6 52.9 36 -2.8 27
13:05 1019 30.09 848 25.04 11.8 53.2 36 -2.8 26.9
13:10 1019 30.09 848 25.04 11.8 53.2 36 -2.9 26.8
13:15 1019 30.09 848 25.04 11.8 53.2 36 -2.9 26.7
13:20 1019 30.09 848 25.04 11.8 53.2 35 -3 26.6
13:25 1019 30.09 848 25.04 12 53.5 36 -2.8 27
13:30 1019 30.09 848 25.04 11.9 53.4 35 -2.9 26.8
13:35 1019 30.09 848 25.04 11.8 53.3 35 -2.9 26.8
13:40 1019 30.09 848 25.04 11.8 53.2 36 -2.9 26.8
13:45 1019 30.09 848 25.04 11.9 53.5 35 -3 26.6
13:50 1019 30.09 848 25.04 11.9 53.4 35 -3.1 26.3
13:55 1019 30.09 848 25.04 11.9 53.3 35 -3.1 26.4
14:00 1019 30.09 848 25.04 12.1 53.7 34 -3.3 26.1
14:05 1019 30.09 848 25.04 12.1 53.8 34 -3.2 26.3
14:10 1019 30.09 848 25.04 12 53.7 34 -3.4 25.8
14:15 1019 30.09 848 25.04 12 53.5 34 -3.3 26
14:20 1019 30.09 848 25.04 12 53.5 34 -3.4 25.9
14:25 1019 30.09 848 25.04 11.8 53.2 34 -3.5 25.8
14:30 1019 30.09 848 25.04 11.7 53.1 35 -3 26.6
14:35 1019 30.09 848 25.04 11.7 53 35 -3.1 26.4
14:40 1019 30.09 848 25.04 11.5 52.8 35 -3.4 25.9
14:45 1019 30.09 848 25.04 11.4 52.6 36 -3 26.7
14:50 1018 30.06 848 25.04 11.4 52.5 36 -2.9 26.7
14:55 1018 30.06 848 25.04 11.2 52.2 37 -2.9 26.7
15:00 1018 30.06 848 25.04 11.1 51.9 37 -2.9 26.7
15:05 1019 30.09 848 25.04 11.1 51.9 37 -3 26.5
15:10 1018 30.06 848 25.04 11 51.9 37 -3 26.7
15:15 1018 30.06 848 25.04 11 51.8 38 -2.9 26.8
15:20 1018 30.06 848 25.04 11 51.7 38 -2.8 27
15:25 1018 30.06 848 25.04 11 51.7 38 -2.8 27
15:30 1018 30.06 847 25.01 10.9 51.7 38 -2.8 26.9
15:35 1018 30.06 847 25.01 10.9 51.6 38 -2.9 26.8
15:40 1018 30.06 848 25.04 10.8 51.5 38 -3 26.6
15:45 1018 30.06 848 25.04 10.8 51.5 38 -3 26.6
15:50 1018 30.06 848 25.04 10.8 51.4 38 -2.8 26.9
15:55 1018 30.06 848 25.04 10.7 51.3 39 -2.7 27.1
16:00 1019 30.09 848 25.04 10.7 51.3 38 -2.9 26.8
16:05 1019 30.09 848 25.04 10.7 51.3 38 -2.9 26.8
16:10 1019 30.09 848 25.04 10.7 51.2 38 -2.9 26.8
16:15 1018 30.06 848 25.04 10.7 51.2 39 -2.8 27
16:20 1018 30.06 848 25.04 10.7 51.2 39 -2.8 26.9
16:25 1019 30.09 848 25.04 10.7 51.2 39 -2.7 27.1
16:30 1019 30.09 848 25.04 10.6 51.1 39 -2.6 27.2
16:35 1019 30.09 848 25.04 10.6 51 40 -2.5 27.4
16:40 1019 30.09 848 25.04 10.5 50.9 40 -2.5 27.5
16:45 1018 30.06 848 25.04 10.5 50.8 40 -2.6 27.3
16:50 1018 30.06 848 25.04 10.4 50.7 40 -2.6 27.3
16:55 1018 30.06 848 25.04 10.4 50.6 40 -2.6 27.3
17:00 1018 30.06 848 25.04 10.3 50.5 40 -2.6 27.3
17:05 1018 30.06 848 25.04 10.3 50.5 40 -2.7 27.2
17:10 1018 30.06 848 25.04 10.2 50.4 41 -2.5 27.5
17:15 1018 30.06 848 25.04 10.2 50.3 41 -2.5 27.5
17:20 1018 30.06 847 25.01 10.1 50.1 41 -2.6 27.3
17:25 1018 30.06 847 25.01 10.1 50.1 41 -2.6 27.4
17:30 1018 30.06 847 25.01 10 50.1 41 -2.5 27.4
17:35 1018 30.06 847 25.01 10 50 41 -2.6 27.4
17:40 1018 30.06 847 25.01 10 49.9 41 -2.5 27.5
17:45 1018 30.06 847 25.01 9.9 49.8 41 -2.5 27.4
17:50 1018 30.06 847 25.01 9.9 49.8 42 -2.5 27.5
17:55 1018 30.06 847 25.01 9.9 49.8 42 -2.5 27.6
18:00 1018 30.06 847 25.01 9.8 49.7 42 -2.5 27.6
18:05 1018 30.06 847 25.01 9.8 49.7 42 -2.3 27.8
18:10 1018 30.06 848 25.04 9.8 49.6 42 -2.4 27.6
18:15 1018 30.06 848 25.04 9.8 49.6 43 -2.3 27.8
18:20 1018 30.06 847 25.01 9.7 49.5 43 -2.3 27.9
18:25 1018 30.06 848 25.04 9.6 49.4 43 -2.3 27.9
18:30 1018 30.06 847 25.01 9.6 49.3 43 -2.2 28
18:35 1018 30.06 847 25.01 9.6 49.2 44 -2.1 28.1
18:40 1018 30.06 847 25.01 9.5 49.2 44 -2 28.4
18:45 1018 30.06 847 25.01 9.5 49 44 -2.1 28.2
18:50 1018 30.06 847 25.01 9.4 49 45 -2 28.5
18:55 1018 30.06 847 25.01 9.4 48.8 45 -2 28.3
19:00 1018 30.06 847 25.01 9.3 48.8 45 -1.9 28.5
19:05 1018 30.06 847 25.01 9.3 48.7 46 -1.8 28.7
19:10 1018 30.06 848 25.04 9.2 48.5 46 -2 28.5
19:15 1018 30.06 848 25.04 9.2 48.5 46 -1.9 28.6
19:20 1018 30.06 848 25.04 9.2 48.5 45 -2 28.4
19:25 1018 30.06 848 25.04 9.1 48.4 46 -1.9 28.6
19:30 1018 30.06 848 25.04 9 48.3 46 -1.9 28.7
19:35 1018 30.06 847 25.01 9 48.2 46 -2 28.5
19:40 1018 30.06 847 25.01 9 48.2 46 -2 28.3
19:45 1018 30.06 848 25.04 8.9 48.1 46 -1.9 28.5
19:50 1018 30.06 848 25.04 8.9 48 46 -2 28.4
19:55 1018 30.06 848 25.04 8.9 48 46 -2 28.4
20:00 1018 30.06 848 25.04 8.8 47.9 46 -2 28.3
20:05 1018 30.06 848 25.04 8.8 47.8 47 -1.9 28.5
20:10 1018 30.06 847 25.01 8.7 47.7 47 -1.9 28.6
20:15 1018 30.06 848 25.04 8.7 47.6 47 -1.9 28.6
20:20 1018 30.06 847 25.01 8.7 47.6 46 -2.2 28.1
20:25 1018 30.06 848 25.04 8.7 47.6 46 -2.1 28.2
20:30 1018 30.06 848 25.04 8.6 47.4 47 -2.1 28.2
20:35 1018 30.06 848 25.04 8.5 47.2 48 -1.9 28.6
20:40 1018 30.06 848 25.04 8.3 47 49 -1.8 28.7
20:45 1018 30.06 848 25.04 8.3 46.9 49 -1.9 28.6
20:50 1018 30.06 848 25.04 8.3 46.9 49 -1.9 28.6
20:55 1018 30.06 847 25.01 8.2 46.7 49 -1.8 28.8
21:00 1018 30.06 847 25.01 8.1 46.7 50 -1.6 29.1
21:05 1018 30.06 847 25.01 8.1 46.5 50 -1.7 29
21:10 1018 30.06 847 25.01 8 46.4 51 -1.6 29.2
21:15 1018 30.06 847 25.01 8 46.3 51 -1.5 29.3
21:20 1018 30.06 848 25.04 7.9 46.2 52 -1.5 29.3
21:25 1018 30.06 847 25.01 7.8 46.1 52 -1.5 29.3
21:30 1018 30.06 847 25.01 7.8 46 52 -1.5 29.4
21:35 1018 30.06 847 25.01 7.8 46 52 -1.5 29.3
21:40 1018 30.06 847 25.01 7.7 45.9 52 -1.4 29.5
21:45 1018 30.06 847 25.01 7.7 45.8 53 -1.4 29.5
21:50 1018 30.06 847 25.01 7.6 45.7 53 -1.4 29.4
21:55 1018 30.06 847 25.01 7.6 45.7 52 -1.5 29.3
22:00 1018 30.06 847 25.01 7.7 45.8 53 -1.4 29.5
22:05 1018 30.06 847 25.01 7.6 45.6 53 -1.5 29.4
22:10 1018 30.06 847 25.01 7.6 45.7 53 -1.4 29.4
22:15 1018 30.06 847 25.01 7.5 45.6 53 -1.3 29.6
22:20 1018 30.06 847 25.01 7.5 45.6 53 -1.5 29.3
22:25 1018 30.06 847 25.01 7.5 45.6 53 -1.3 29.6
22:30 1018 30.06 847 25.01 7.5 45.5 54 -1.1 29.9
22:35 1018 30.06 847 25.01 7.4 45.3 54 -1.2 29.8
22:40 1018 30.06 847 25.01 7.4 45.4 54 -1.3 29.7
22:45 1018 30.06 847 25.01 7.5 45.5 53 -1.4 29.6
22:50 1018 30.06 847 25.01 7.5 45.5 54 -1.3 29.7
22:55 1018 30.06 847 25.01 7.5 45.4 54 -1.2 29.8
23:00 1018 30.06 847 25.01 7.4 45.2 55 -1.1 30
23:05 1018 30.06 847 25.01 7.3 45.1 55 -1.1 30.1
23:10 1018 30.06 847 25.01 7.2 45 57 -0.7 30.7
23:15 1018 30.06 847 25.01 7.1 44.8 58 -0.5 31.1
23:20 1018 30.06 847 25.01 6.9 44.5 60 -0.2 31.7
23:25 1018 30.06 847 25.01 6.8 44.2 61 -0.1 31.8
23:30 1018 30.06 847 25.01 6.6 43.9 64 0.3 32.6
23:35 1018 30.06 847 25.01 6.3 43.4 66 0.5 32.9
23:40 1018 30.06 847 25.01 6.1 43.1 68 0.6 33.1
23:45 1018 30.06 847 25.01 6.1 42.9 68 0.7 33.3
23:50 1018 30.06 847 25.01 6.1 42.9 69 0.8 33.4
23:55 1017 30.03 847 25.01 6.1 42.9 68 0.6 33
24:00 1017 30.03 847 25.01 6.1 43 68 0.6 33